createdAt,value
2023-01-19T00:01:26.888Z,56.39
2023-01-19T00:03:54.252Z,56.21
2023-01-19T00:06:22.291Z,56.18
2023-01-19T00:08:52.034Z,56.09
2023-01-19T00:11:19.875Z,56.60
2023-01-19T00:13:50.511Z,56.55
2023-01-19T00:16:21.802Z,56.76
2023-01-19T00:18:51.171Z,56.35
2023-01-19T00:21:19.129Z,56.46
2023-01-19T00:23:48.835Z,56.59
2023-01-19T00:26:17.302Z,56.54
2023-01-19T00:28:45.096Z,56.83
2023-01-19T00:31:12.999Z,56.84
2023-01-19T00:33:40.097Z,56.66
2023-01-19T00:36:07.739Z,56.85
2023-01-19T00:38:34.793Z,57.01
2023-01-19T00:41:01.888Z,56.81
2023-01-19T00:43:28.939Z,57.03
2023-01-19T00:45:56.048Z,57.52
2023-01-19T00:48:23.177Z,57.42
2023-01-19T00:50:50.225Z,57.70
2023-01-19T00:53:17.349Z,57.46
2023-01-19T00:55:44.448Z,57.17
2023-01-19T00:58:11.484Z,57.27
2023-01-19T01:00:38.874Z,57.26
2023-01-19T01:03:05.978Z,56.95
2023-01-19T01:05:33.173Z,56.92
2023-01-19T01:08:00.226Z,57.43
2023-01-19T01:10:29.637Z,57.54
2023-01-19T01:12:59.031Z,57.57
2023-01-19T01:15:28.322Z,57.52
2023-01-19T01:17:56.152Z,57.85
2023-01-19T01:20:28.201Z,57.91
2023-01-19T01:22:57.112Z,57.64
2023-01-19T01:25:27.113Z,57.55
2023-01-19T01:27:55.459Z,57.63
2023-01-19T01:30:23.458Z,57.59
2023-01-19T01:32:50.678Z,57.83
2023-01-19T01:35:17.998Z,57.86
2023-01-19T01:37:45.210Z,57.93
2023-01-19T01:40:15.109Z,57.73
2023-01-19T01:42:42.722Z,57.88
2023-01-19T01:45:38.461Z,58.00
2023-01-19T01:48:28.726Z,58.08
2023-01-19T01:51:22.094Z,58.46
2023-01-19T01:54:10.474Z,58.80
2023-01-19T01:56:48.773Z,59.13
2023-01-19T01:59:34.862Z,58.65
2023-01-19T02:02:33.340Z,58.46
2023-01-19T02:05:06.714Z,58.46
2023-01-19T02:08:32.306Z,58.45
2023-01-19T02:11:19.476Z,58.44
2023-01-19T02:13:47.723Z,58.58
2023-01-19T02:16:16.691Z,58.48
2023-01-19T02:18:45.287Z,57.63
2023-01-19T02:21:31.967Z,57.75
2023-01-19T02:24:02.977Z,57.63
2023-01-19T02:26:43.065Z,57.75
2023-01-19T02:29:20.431Z,58.13
2023-01-19T02:31:47.839Z,57.32
2023-01-19T02:34:18.356Z,57.08
2023-01-19T02:37:06.662Z,56.96
2023-01-19T02:39:45.210Z,56.97
2023-01-19T02:42:19.939Z,56.71
2023-01-19T02:44:50.611Z,56.52
2023-01-19T02:47:18.445Z,56.18
2023-01-19T02:49:57.319Z,56.29
2023-01-19T02:52:26.156Z,56.07
2023-01-19T02:55:18.606Z,55.90
2023-01-19T02:57:54.492Z,55.83
2023-01-19T03:01:01.182Z,55.89
2023-01-19T03:04:00.891Z,55.66
2023-01-19T03:06:55.655Z,55.78
2023-01-19T03:09:43.431Z,55.57
2023-01-19T03:12:34.763Z,56.09
2023-01-19T03:15:21.104Z,56.25
2023-01-19T03:17:51.579Z,56.64
2023-01-19T03:20:24.777Z,56.36
2023-01-19T03:23:03.915Z,56.25
2023-01-19T03:25:35.957Z,56.25
2023-01-19T03:28:04.903Z,56.15
2023-01-19T03:30:46.798Z,55.77
2023-01-19T03:33:27.465Z,55.81
2023-01-19T03:36:03.844Z,55.90
2023-01-19T03:38:36.262Z,56.00
2023-01-19T03:41:10.034Z,55.72
2023-01-19T03:43:39.378Z,55.15
2023-01-19T03:46:07.582Z,54.66
2023-01-19T03:48:34.983Z,54.19
2023-01-19T03:51:08.365Z,54.13
2023-01-19T03:53:35.852Z,53.56
2023-01-19T03:56:03.734Z,53.54
2023-01-19T03:58:30.939Z,53.24
2023-01-19T04:00:58.304Z,53.18
2023-01-19T04:03:25.384Z,53.11
2023-01-19T04:05:52.476Z,53.05
2023-01-19T04:08:19.712Z,52.71
2023-01-19T04:10:46.944Z,52.64
2023-01-19T04:13:14.211Z,52.71
2023-01-19T04:15:41.468Z,52.40
2023-01-19T04:18:09.506Z,52.46
2023-01-19T04:20:37.315Z,52.29
2023-01-19T04:23:05.356Z,52.13
2023-01-19T04:25:33.204Z,51.69
2023-01-19T04:28:00.362Z,52.00
2023-01-19T04:30:27.957Z,51.76
2023-01-19T04:32:58.655Z,51.76
2023-01-19T04:35:26.005Z,51.78
2023-01-19T04:37:53.085Z,52.02
2023-01-19T04:40:20.731Z,52.20
2023-01-19T04:42:47.936Z,52.10
2023-01-19T04:45:15.457Z,51.94
2023-01-19T04:47:42.838Z,51.78
2023-01-19T04:50:11.340Z,51.88
2023-01-19T04:52:38.531Z,51.39
2023-01-19T04:55:07.111Z,51.69
2023-01-19T04:57:34.263Z,51.13
2023-01-19T05:00:01.351Z,50.88
2023-01-19T05:02:28.538Z,50.87
2023-01-19T05:04:55.663Z,50.39
2023-01-19T05:07:22.789Z,50.56
2023-01-19T05:09:49.950Z,50.54
2023-01-19T05:12:17.441Z,50.34
2023-01-19T05:14:44.559Z,49.83
2023-01-19T05:17:11.991Z,50.02
2023-01-19T05:19:39.338Z,50.17
2023-01-19T05:22:06.818Z,49.65
2023-01-19T05:24:33.929Z,49.90
2023-01-19T05:27:01.314Z,49.85
2023-01-19T05:29:28.466Z,49.41
2023-01-19T05:31:55.600Z,49.41
2023-01-19T05:34:22.661Z,49.50
2023-01-19T05:36:49.806Z,49.36
2023-01-19T05:39:17.002Z,49.64
2023-01-19T05:41:45.563Z,49.51
2023-01-19T05:44:13.745Z,49.16
2023-01-19T05:46:41.033Z,49.10
2023-01-19T05:49:08.219Z,49.12
2023-01-19T05:51:38.169Z,49.18
2023-01-19T05:54:06.174Z,49.56
2023-01-19T05:56:33.525Z,49.64
2023-01-19T05:59:01.728Z,49.78
2023-01-19T06:01:29.063Z,49.69
2023-01-19T06:03:56.597Z,49.77
2023-01-19T06:06:23.681Z,49.58
2023-01-19T06:08:50.964Z,49.10
2023-01-19T06:11:18.152Z,48.87
2023-01-19T06:13:45.290Z,48.94
2023-01-19T06:16:12.416Z,48.80
2023-01-19T06:18:39.542Z,49.10
2023-01-19T06:21:08.528Z,48.82
2023-01-19T06:23:36.895Z,48.87
2023-01-19T06:26:04.122Z,49.12
2023-01-19T06:28:31.529Z,49.11
2023-01-19T06:30:58.705Z,49.34
2023-01-19T06:33:27.591Z,49.44
2023-01-19T06:35:55.153Z,49.16
2023-01-19T06:38:22.552Z,49.32
2023-01-19T06:40:55.578Z,49.70
2023-01-19T06:43:22.708Z,49.39
2023-01-19T06:45:50.429Z,49.00
2023-01-19T06:48:18.124Z,49.11
2023-01-19T06:50:46.557Z,49.31
2023-01-19T06:53:16.706Z,48.72
2023-01-19T06:55:44.350Z,48.83
2023-01-19T06:58:12.418Z,48.67
2023-01-19T07:00:39.598Z,49.04
2023-01-19T07:03:08.744Z,49.50
2023-01-19T07:05:36.732Z,49.18
2023-01-19T07:08:04.487Z,48.87
2023-01-19T07:11:26.596Z,49.21
2023-01-19T07:13:19.115Z,49.64
2023-01-19T07:15:46.205Z,50.05
2023-01-19T07:18:13.251Z,50.65
2023-01-19T07:20:40.483Z,50.95
2023-01-19T07:23:07.530Z,50.82
2023-01-19T07:25:34.774Z,50.44
2023-01-19T07:28:02.311Z,50.83
2023-01-19T07:30:29.462Z,50.66
2023-01-19T07:32:58.239Z,50.63
2023-01-19T07:35:26.100Z,50.57
2023-01-19T07:37:53.153Z,50.45
2023-01-19T07:40:21.118Z,50.81
2023-01-19T07:42:50.546Z,50.91
2023-01-19T07:45:20.374Z,50.54
2023-01-19T07:47:49.779Z,50.72
2023-01-19T07:50:21.376Z,50.48
2023-01-19T07:52:53.654Z,50.00
2023-01-19T07:55:22.314Z,50.01
2023-01-19T07:57:52.512Z,49.79
2023-01-19T08:00:24.646Z,49.29
2023-01-19T08:02:53.796Z,49.00
2023-01-19T08:05:21.548Z,49.43
2023-01-19T08:07:48.861Z,48.98
2023-01-19T08:10:18.681Z,47.77
2023-01-19T08:12:45.810Z,47.19
2023-01-19T08:15:12.886Z,46.62
2023-01-19T08:17:39.929Z,46.90
2023-01-19T08:20:09.365Z,46.86
2023-01-19T08:22:36.895Z,46.92
2023-01-19T08:25:04.657Z,46.59
2023-01-19T08:27:31.757Z,46.35
2023-01-19T08:29:59.164Z,46.32
2023-01-19T08:32:26.314Z,46.17
2023-01-19T08:34:53.390Z,45.69
2023-01-19T08:37:20.604Z,45.98
2023-01-19T08:39:48.024Z,45.72
2023-01-19T08:42:15.063Z,45.63
2023-01-19T08:44:57.192Z,45.53
2023-01-19T08:47:25.005Z,45.78
2023-01-19T08:49:52.127Z,45.73
2023-01-19T08:52:19.235Z,45.70
2023-01-19T08:54:46.323Z,45.54
2023-01-19T08:57:13.349Z,45.60
2023-01-19T08:59:40.386Z,45.45
2023-01-19T09:02:09.531Z,45.11
2023-01-19T09:04:36.659Z,45.07
2023-01-19T09:07:03.697Z,45.00
2023-01-19T09:09:30.819Z,44.78
2023-01-19T09:11:57.878Z,44.89
2023-01-19T09:14:24.940Z,45.11
2023-01-19T09:16:52.268Z,45.16
2023-01-19T09:19:19.477Z,44.73
2023-01-19T09:21:46.601Z,44.89
2023-01-19T09:24:13.811Z,44.31
2023-01-19T09:26:40.983Z,44.45
2023-01-19T09:29:08.492Z,44.37
2023-01-19T09:31:35.836Z,43.97
2023-01-19T09:34:03.101Z,44.08
2023-01-19T09:36:30.309Z,43.41
2023-01-19T09:38:57.528Z,42.50
2023-01-19T09:41:26.364Z,42.27
2023-01-19T09:44:00.744Z,42.51
2023-01-19T09:46:44.636Z,42.08
2023-01-19T09:49:17.296Z,41.99
2023-01-19T09:51:50.351Z,42.48
2023-01-19T09:54:41.128Z,43.27
2023-01-19T09:57:12.556Z,43.46
2023-01-19T09:59:41.632Z,42.99
2023-01-19T10:02:29.969Z,43.15
2023-01-19T10:05:08.464Z,42.96
2023-01-19T10:08:13.026Z,43.06
2023-01-19T10:10:46.071Z,43.19
2023-01-19T10:13:39.037Z,42.00
2023-01-19T10:16:33.975Z,42.35
2023-01-19T10:19:28.489Z,42.70
2023-01-19T10:21:59.210Z,42.77
2023-01-19T10:24:36.748Z,42.79
2023-01-19T10:27:11.403Z,42.02
2023-01-19T10:29:38.720Z,42.30
2023-01-19T10:32:17.455Z,42.73
2023-01-19T10:34:44.613Z,42.40
2023-01-19T10:37:17.760Z,42.70
2023-01-19T10:39:51.990Z,42.29
2023-01-19T10:42:19.574Z,42.44
2023-01-19T10:44:47.047Z,42.61
2023-01-19T10:47:23.544Z,42.43
2023-01-19T10:49:51.438Z,42.42
2023-01-19T10:52:31.499Z,42.32
2023-01-19T10:55:00.263Z,42.32
2023-01-19T10:57:32.862Z,41.94
2023-01-19T10:59:59.987Z,41.67
2023-01-19T11:02:30.255Z,41.72
2023-01-19T11:05:22.654Z,41.38
2023-01-19T11:07:49.783Z,41.74
2023-01-19T11:10:22.549Z,42.26
2023-01-19T11:13:13.026Z,41.35
2023-01-19T11:15:47.658Z,41.32
2023-01-19T11:18:41.417Z,40.64
2023-01-19T11:21:25.266Z,39.69
2023-01-19T11:23:56.207Z,37.83
2023-01-19T11:26:40.832Z,36.86
2023-01-19T11:29:29.731Z,36.90
2023-01-19T11:32:20.525Z,36.25
2023-01-19T11:34:48.301Z,35.41
2023-01-19T11:37:21.584Z,34.67
2023-01-19T11:39:55.653Z,33.59
2023-01-19T11:42:23.463Z,33.46
2023-01-19T11:45:02.629Z,32.89
2023-01-19T11:47:49.763Z,31.70
2023-01-19T11:50:41.818Z,31.08
2023-01-19T11:53:24.301Z,31.65
2023-01-19T11:56:04.951Z,31.53
2023-01-19T11:58:40.351Z,31.90
2023-01-19T12:01:25.442Z,31.56
2023-01-19T12:04:10.519Z,30.33
2023-01-19T12:06:45.526Z,30.33
2023-01-19T12:09:22.951Z,30.61
2023-01-19T12:12:01.868Z,29.20
2023-01-19T12:15:02.071Z,29.10
2023-01-19T12:17:41.151Z,29.10
2023-01-19T12:20:35.605Z,28.74
2023-01-19T12:23:23.465Z,28.34
2023-01-19T12:26:08.651Z,27.30
2023-01-19T12:28:43.142Z,26.64
2023-01-19T12:31:15.209Z,27.81
2023-01-19T12:33:42.351Z,28.54
2023-01-19T12:36:37.068Z,27.84
2023-01-19T12:39:21.601Z,26.32
2023-01-19T12:41:51.119Z,24.44
2023-01-19T12:44:24.525Z,23.72
2023-01-19T12:47:04.220Z,23.88
2023-01-19T12:50:03.218Z,23.96
2023-01-19T12:52:41.164Z,23.38
2023-01-19T12:55:14.356Z,24.67
2023-01-19T12:57:56.590Z,24.74
2023-01-19T13:00:23.637Z,24.80
2023-01-19T13:03:00.364Z,24.92
2023-01-19T13:05:39.639Z,25.99
2023-01-19T13:08:06.814Z,26.08
2023-01-19T13:11:02.379Z,27.16
2023-01-19T13:13:42.159Z,28.39
2023-01-19T13:16:22.377Z,28.44
2023-01-19T13:19:01.542Z,28.79
2023-01-19T13:21:36.014Z,29.49
2023-01-19T13:24:07.290Z,29.24
2023-01-19T13:26:36.391Z,29.15
2023-01-19T13:29:11.147Z,28.92
2023-01-19T13:31:42.661Z,28.70
2023-01-19T13:34:17.488Z,29.41
2023-01-19T13:36:48.290Z,30.26
2023-01-19T13:39:30.763Z,31.14
2023-01-19T13:42:06.573Z,32.30
2023-01-19T13:44:41.998Z,31.80
2023-01-19T13:47:22.530Z,31.47
2023-01-19T13:49:56.199Z,30.38
2023-01-19T13:52:29.377Z,30.00
2023-01-19T13:55:05.701Z,29.37
2023-01-19T13:57:39.946Z,29.86
2023-01-19T14:00:16.152Z,29.97
2023-01-19T14:03:13.437Z,30.26
2023-01-19T14:05:45.103Z,29.37
2023-01-19T14:08:15.254Z,29.46
2023-01-19T14:10:47.062Z,27.81
2023-01-19T14:13:19.892Z,27.18
2023-01-19T14:15:50.124Z,26.93
2023-01-19T14:18:17.096Z,27.96
2023-01-19T14:21:13.017Z,31.62
2023-01-19T14:24:06.749Z,34.32
2023-01-19T14:26:49.539Z,36.32
2023-01-19T14:29:33.130Z,37.58
2023-01-19T14:32:20.688Z,38.86
2023-01-19T14:35:04.607Z,39.76
2023-01-19T14:37:35.968Z,39.94
2023-01-19T14:40:10.947Z,39.80
2023-01-19T14:42:55.454Z,39.89
2023-01-19T14:45:34.963Z,40.44
2023-01-19T14:48:17.892Z,41.01
2023-01-19T14:51:01.991Z,40.75
2023-01-19T14:53:37.677Z,40.84
2023-01-19T14:56:06.363Z,40.72
2023-01-19T14:58:35.880Z,40.66
2023-01-19T15:01:03.956Z,40.53
2023-01-19T15:03:44.762Z,40.59
2023-01-19T15:06:17.612Z,40.71
2023-01-19T15:08:53.303Z,41.26
2023-01-19T15:11:34.958Z,41.66
2023-01-19T15:14:03.350Z,42.15
2023-01-19T15:16:34.382Z,42.97
2023-01-19T15:19:01.537Z,43.19
2023-01-19T15:21:28.608Z,43.41
2023-01-19T15:23:55.866Z,43.79
2023-01-19T15:26:26.628Z,44.00
2023-01-19T15:28:53.904Z,43.78
2023-01-19T15:31:23.710Z,43.77
2023-01-19T15:33:51.076Z,43.89
2023-01-19T15:36:21.229Z,43.54
2023-01-19T15:38:52.100Z,43.63
2023-01-19T15:41:30.069Z,44.02
2023-01-19T15:43:57.970Z,44.46
2023-01-19T15:46:25.915Z,44.58
2023-01-19T15:48:54.223Z,44.33
2023-01-19T15:51:25.954Z,44.62
2023-01-19T15:53:54.570Z,45.11
2023-01-19T15:56:31.906Z,44.76
2023-01-19T15:58:59.851Z,44.92
2023-01-19T16:01:34.012Z,45.43
2023-01-19T16:04:05.933Z,45.84
2023-01-19T16:06:34.185Z,45.83
2023-01-19T16:09:02.640Z,46.21
2023-01-19T16:11:35.109Z,46.19
2023-01-19T16:14:02.621Z,46.44
2023-01-19T16:16:30.176Z,46.13
2023-01-19T16:18:58.043Z,46.13
2023-01-19T16:21:25.561Z,46.34
2023-01-19T16:23:53.231Z,46.81
2023-01-19T16:26:29.474Z,46.30
2023-01-19T16:28:59.736Z,46.76
2023-01-19T16:31:27.447Z,47.19
2023-01-19T16:33:54.966Z,47.08
2023-01-19T16:36:35.058Z,47.16
2023-01-19T16:39:06.586Z,46.95
2023-01-19T16:41:34.865Z,47.13
2023-01-19T16:44:02.004Z,46.95
2023-01-19T16:46:33.971Z,47.20
2023-01-19T16:49:09.670Z,46.71
2023-01-19T16:51:37.360Z,47.00
2023-01-19T16:54:04.567Z,47.15
2023-01-19T16:56:32.065Z,46.79
2023-01-19T16:59:00.019Z,46.70
2023-01-19T17:01:29.489Z,46.68
2023-01-19T17:03:57.122Z,46.81
2023-01-19T17:06:25.222Z,46.95
2023-01-19T17:08:53.344Z,46.71
2023-01-19T17:11:29.740Z,46.81
2023-01-19T17:14:03.581Z,46.85
2023-01-19T17:16:33.667Z,46.74
2023-01-19T17:19:03.981Z,47.03
2023-01-19T17:21:31.760Z,46.92
2023-01-19T17:23:59.336Z,47.29
2023-01-19T17:26:31.293Z,47.64
2023-01-19T17:29:05.484Z,47.42
2023-01-19T17:31:33.260Z,47.64
2023-01-19T17:34:01.279Z,47.58
2023-01-19T17:36:30.789Z,46.95
2023-01-19T17:39:00.596Z,47.17
2023-01-19T17:41:30.404Z,47.21
2023-01-19T17:43:59.752Z,46.81
2023-01-19T17:46:29.123Z,46.64
2023-01-19T17:48:59.374Z,46.61
2023-01-19T17:51:27.935Z,46.16
2023-01-19T17:53:57.979Z,46.18
2023-01-19T17:56:29.986Z,45.87
2023-01-19T17:58:58.943Z,45.89
2023-01-19T18:01:29.106Z,46.09
2023-01-19T18:03:57.737Z,45.99
2023-01-19T18:06:25.142Z,45.74
2023-01-19T18:08:52.679Z,45.39
2023-01-19T18:11:21.329Z,44.89
2023-01-19T18:13:50.550Z,45.26
2023-01-19T18:16:25.667Z,45.11
2023-01-19T18:18:54.717Z,44.89
2023-01-19T18:21:24.288Z,44.87
2023-01-19T18:23:51.797Z,45.18
2023-01-19T18:26:22.224Z,45.97
2023-01-19T18:28:50.239Z,46.56
2023-01-19T18:31:19.498Z,47.20
2023-01-19T18:33:48.933Z,47.44
2023-01-19T18:36:17.246Z,47.50
2023-01-19T18:38:45.236Z,47.51
2023-01-19T18:41:21.093Z,47.54
2023-01-19T18:43:49.060Z,47.48
2023-01-19T18:46:16.417Z,47.04
2023-01-19T18:48:44.028Z,46.97
2023-01-19T18:51:14.576Z,47.06
2023-01-19T18:53:42.892Z,47.12
2023-01-19T18:56:13.834Z,47.03
2023-01-19T18:58:41.414Z,46.79
2023-01-19T19:01:34.974Z,46.42
2023-01-19T19:04:02.600Z,46.29
2023-01-19T19:06:29.830Z,45.88
2023-01-19T19:08:59.521Z,45.70
2023-01-19T19:11:27.254Z,45.51
2023-01-19T19:14:02.745Z,45.42
2023-01-19T19:16:31.625Z,45.42
2023-01-19T19:18:59.932Z,45.53
2023-01-19T19:21:27.310Z,45.56
2023-01-19T19:23:57.248Z,46.11
2023-01-19T19:26:26.154Z,45.76
2023-01-19T19:28:53.224Z,45.92
2023-01-19T19:31:23.047Z,45.76
2023-01-19T19:33:51.342Z,45.84
2023-01-19T19:36:20.019Z,45.57
2023-01-19T19:38:48.833Z,45.98
2023-01-19T19:41:27.177Z,45.90
2023-01-19T19:43:55.690Z,46.16
2023-01-19T19:46:24.489Z,46.07
2023-01-19T19:48:52.611Z,46.40
2023-01-19T19:51:27.079Z,46.19
2023-01-19T19:53:58.842Z,46.06
2023-01-19T19:56:29.143Z,46.09
2023-01-19T19:58:59.050Z,46.13
2023-01-19T20:01:33.004Z,46.33
2023-01-19T20:04:10.868Z,46.49
2023-01-19T20:06:44.889Z,46.89
2023-01-19T20:09:14.139Z,46.61
2023-01-19T20:11:43.921Z,46.56
2023-01-19T20:14:12.920Z,46.50
2023-01-19T20:16:40.336Z,46.45
2023-01-19T20:19:07.693Z,46.15
2023-01-19T20:21:37.885Z,45.94
2023-01-19T20:24:14.727Z,45.79
2023-01-19T20:26:50.437Z,46.03
2023-01-19T20:29:18.284Z,46.00
2023-01-19T20:31:53.286Z,45.98
2023-01-19T20:34:25.532Z,46.04
2023-01-19T20:36:53.937Z,46.20
2023-01-19T20:39:23.187Z,45.98
2023-01-19T20:41:51.457Z,45.83
2023-01-19T20:44:22.921Z,45.61
2023-01-19T20:46:51.028Z,45.97
2023-01-19T20:49:19.882Z,45.94
2023-01-19T20:51:47.165Z,46.03
2023-01-19T20:54:18.174Z,46.05
2023-01-19T20:56:45.476Z,46.16
2023-01-19T20:59:13.554Z,46.27
2023-01-19T21:01:42.307Z,46.33
2023-01-19T21:04:10.867Z,46.57
2023-01-19T21:06:38.987Z,46.77
2023-01-19T21:09:07.365Z,46.88
2023-01-19T21:11:36.148Z,47.16
2023-01-19T21:14:04.073Z,47.25
2023-01-19T21:16:33.998Z,47.20
2023-01-19T21:19:01.447Z,47.22
2023-01-19T21:21:31.392Z,47.18
2023-01-19T21:24:01.120Z,47.09
2023-01-19T21:26:33.307Z,47.37
2023-01-19T21:29:02.606Z,47.58
2023-01-19T21:31:30.250Z,47.73
2023-01-19T21:33:58.181Z,47.43
2023-01-19T21:36:25.578Z,47.51
2023-01-19T21:38:55.593Z,47.68
2023-01-19T21:41:23.119Z,48.12
2023-01-19T21:43:50.202Z,48.19
2023-01-19T21:46:32.187Z,48.37
2023-01-19T21:49:06.451Z,48.62
2023-01-19T21:51:36.709Z,48.98
2023-01-19T21:54:07.409Z,49.00
2023-01-19T21:56:35.690Z,49.12
2023-01-19T21:59:03.443Z,49.26
2023-01-19T22:01:32.715Z,49.70
2023-01-19T22:04:00.490Z,49.50
2023-01-19T22:06:28.277Z,49.27
2023-01-19T22:08:55.854Z,49.64
2023-01-19T22:11:23.566Z,49.75
2023-01-19T22:13:51.410Z,49.93
2023-01-19T22:16:21.277Z,49.96
2023-01-19T22:19:01.224Z,49.92
2023-01-19T22:21:33.244Z,50.08
2023-01-19T22:24:03.463Z,49.83
2023-01-19T22:26:32.360Z,50.07
2023-01-19T22:29:01.483Z,50.17
2023-01-19T22:31:30.508Z,50.72
2023-01-19T22:33:58.285Z,51.24
2023-01-19T22:36:28.772Z,50.47
2023-01-19T22:39:04.934Z,49.88
2023-01-19T22:41:35.387Z,49.85
2023-01-19T22:44:07.150Z,49.96
2023-01-19T22:46:36.318Z,49.70
2023-01-19T22:49:05.166Z,49.95
2023-01-19T22:51:33.369Z,50.10
2023-01-19T22:54:01.356Z,49.58
2023-01-19T22:56:31.820Z,49.23
2023-01-19T22:59:00.129Z,49.09
2023-01-19T23:01:35.792Z,48.71
2023-01-19T23:04:04.573Z,48.55
2023-01-19T23:06:36.367Z,48.77
2023-01-19T23:09:08.439Z,49.24
2023-01-19T23:11:44.893Z,49.37
2023-01-19T23:14:16.835Z,49.65
2023-01-19T23:16:44.123Z,49.81
2023-01-19T23:19:12.858Z,49.85
2023-01-19T23:21:40.957Z,50.65
2023-01-19T23:24:08.238Z,50.84
2023-01-19T23:26:41.025Z,50.97
2023-01-19T23:29:13.918Z,51.10
2023-01-19T23:31:48.868Z,51.16
2023-01-19T23:34:16.809Z,51.71
2023-01-19T23:36:44.815Z,51.64
2023-01-19T23:39:21.165Z,51.26
2023-01-19T23:41:49.143Z,51.66
2023-01-19T23:44:17.258Z,51.59
2023-01-19T23:46:44.965Z,51.47
2023-01-19T23:49:13.345Z,51.71
2023-01-19T23:51:41.131Z,51.45
2023-01-19T23:54:08.286Z,51.38
2023-01-19T23:56:38.054Z,51.35
2023-01-19T23:59:09.163Z,51.82
